createdAt,value
2023-01-19T00:00:37.579Z,94565.81
2023-01-19T00:03:04.825Z,94570.97
2023-01-19T00:05:31.333Z,94571.22
2023-01-19T00:07:58.473Z,94569.84
2023-01-19T00:10:25.116Z,94562.34
2023-01-19T00:12:51.576Z,94571.03
2023-01-19T00:15:18.111Z,94576.06
2023-01-19T00:17:44.570Z,94577.03
2023-01-19T00:20:11.364Z,94574.06
2023-01-19T00:22:37.855Z,94568.44
2023-01-19T00:25:04.490Z,94570.16
2023-01-19T00:27:30.923Z,94565.44
2023-01-19T00:29:57.373Z,94577.31
2023-01-19T00:32:23.955Z,94575.56
2023-01-19T00:34:50.463Z,94573.03
2023-01-19T00:37:17.350Z,94575.53
2023-01-19T00:39:43.888Z,94580.41
2023-01-19T00:42:13.163Z,94575.16
2023-01-19T00:44:39.652Z,94576.84
2023-01-19T00:47:06.126Z,94581.97
2023-01-19T00:49:32.616Z,94580.97
2023-01-19T00:51:59.122Z,94584.91
2023-01-19T00:54:26.925Z,94590.09
2023-01-19T00:56:54.100Z,94580.00
2023-01-19T00:59:20.565Z,94577.75
2023-01-19T01:01:47.149Z,94587.50
2023-01-19T01:04:14.432Z,94589.44
2023-01-19T01:06:40.902Z,94592.63
2023-01-19T01:09:07.387Z,94601.19
2023-01-19T01:11:33.855Z,94593.41
2023-01-19T01:14:00.312Z,94600.00
2023-01-19T01:16:26.958Z,94599.69
2023-01-19T01:18:53.419Z,94602.81
2023-01-19T01:21:19.919Z,94602.22
2023-01-19T01:23:46.415Z,94608.22
2023-01-19T01:26:12.887Z,94607.44
2023-01-19T01:28:39.352Z,94609.13
2023-01-19T01:31:05.819Z,94612.91
2023-01-19T01:33:40.718Z,94616.66
2023-01-19T01:36:08.923Z,94614.19
2023-01-19T01:38:35.380Z,94624.25
2023-01-19T01:41:02.111Z,94615.59
2023-01-19T01:43:52.533Z,94623.03
2023-01-19T01:46:19.028Z,94619.91
2023-01-19T01:48:54.723Z,94617.28
2023-01-19T01:51:33.794Z,94621.06
2023-01-19T01:54:10.415Z,94613.75
2023-01-19T01:56:51.219Z,94620.13
2023-01-19T01:59:32.270Z,94617.53
2023-01-19T02:02:04.364Z,94625.53
2023-01-19T02:04:32.063Z,94626.09
2023-01-19T02:06:58.546Z,94629.25
2023-01-19T02:09:31.300Z,94624.00
2023-01-19T02:11:58.015Z,94635.69
2023-01-19T02:14:24.547Z,94630.75
2023-01-19T02:16:51.330Z,94634.91
2023-01-19T02:19:28.115Z,94631.81
2023-01-19T02:22:13.055Z,94626.88
2023-01-19T02:24:39.913Z,94625.94
2023-01-19T02:27:08.227Z,94626.56
2023-01-19T02:29:35.438Z,94625.13
2023-01-19T02:32:02.148Z,94631.81
2023-01-19T02:34:30.060Z,94632.16
2023-01-19T02:37:01.019Z,94631.09
2023-01-19T02:39:32.601Z,94631.16
2023-01-19T02:42:08.037Z,94625.81
2023-01-19T02:44:37.556Z,94633.47
2023-01-19T02:47:05.467Z,94627.41
2023-01-19T02:49:32.027Z,94629.72
2023-01-19T02:51:59.748Z,94631.72
2023-01-19T02:54:59.428Z,94631.16
2023-01-19T02:57:52.857Z,94628.00
2023-01-19T03:00:31.759Z,94625.03
2023-01-19T03:03:44.329Z,94628.69
2023-01-19T03:06:39.415Z,94625.97
2023-01-19T03:09:11.943Z,94627.09
2023-01-19T03:11:46.835Z,94629.09
2023-01-19T03:14:21.663Z,94632.44
2023-01-19T03:16:57.269Z,94635.97
2023-01-19T03:19:37.935Z,94630.63
2023-01-19T03:22:12.758Z,94639.94
2023-01-19T03:24:45.025Z,94636.13
2023-01-19T03:27:42.951Z,94642.38
2023-01-19T03:30:17.736Z,94630.69
2023-01-19T03:32:56.466Z,94639.13
2023-01-19T03:35:29.242Z,94635.66
2023-01-19T03:37:56.324Z,94652.16
2023-01-19T03:40:27.638Z,94641.66
2023-01-19T03:42:56.303Z,94645.34
2023-01-19T03:45:23.587Z,94648.75
2023-01-19T03:47:50.662Z,94652.25
2023-01-19T03:50:26.500Z,94655.25
2023-01-19T03:53:12.109Z,94655.81
2023-01-19T03:55:42.039Z,94656.06
2023-01-19T03:58:08.616Z,94656.50
2023-01-19T04:00:35.928Z,94659.72
2023-01-19T04:03:04.039Z,94663.03
2023-01-19T04:05:31.379Z,94663.38
2023-01-19T04:07:57.961Z,94656.38
2023-01-19T04:10:25.286Z,94666.47
2023-01-19T04:13:01.017Z,94661.88
2023-01-19T04:15:29.158Z,94661.41
2023-01-19T04:18:00.323Z,94663.19
2023-01-19T04:20:28.176Z,94662.16
2023-01-19T04:22:58.693Z,94658.97
2023-01-19T04:25:25.296Z,94664.19
2023-01-19T04:27:52.590Z,94671.72
2023-01-19T04:30:19.290Z,94667.03
2023-01-19T04:32:47.925Z,94671.63
2023-01-19T04:35:17.492Z,94674.78
2023-01-19T04:37:44.028Z,94682.41
2023-01-19T04:40:11.451Z,94682.53
2023-01-19T04:42:37.907Z,94682.03
2023-01-19T04:45:04.626Z,94680.16
2023-01-19T04:47:31.081Z,94679.97
2023-01-19T04:49:57.521Z,94680.00
2023-01-19T04:52:23.980Z,94671.75
2023-01-19T04:54:50.434Z,94676.13
2023-01-19T04:57:16.881Z,94683.25
2023-01-19T04:59:43.358Z,94682.88
2023-01-19T05:02:09.858Z,94676.88
2023-01-19T05:04:36.325Z,94685.16
2023-01-19T05:07:02.769Z,94679.59
2023-01-19T05:09:29.235Z,94687.97
2023-01-19T05:11:55.772Z,94689.94
2023-01-19T05:14:22.366Z,94683.31
2023-01-19T05:16:48.814Z,94687.63
2023-01-19T05:19:15.281Z,94688.38
2023-01-19T05:21:41.765Z,94696.81
2023-01-19T05:24:08.502Z,94697.06
2023-01-19T05:26:35.004Z,94692.75
2023-01-19T05:29:01.484Z,94690.28
2023-01-19T05:31:28.006Z,94701.31
2023-01-19T05:33:54.505Z,94701.53
2023-01-19T05:36:21.015Z,94701.88
2023-01-19T05:38:47.527Z,94702.72
2023-01-19T05:41:13.983Z,94707.41
2023-01-19T05:43:40.506Z,94706.22
2023-01-19T05:46:06.975Z,94706.56
2023-01-19T05:48:33.648Z,94709.25
2023-01-19T05:51:01.389Z,94696.09
2023-01-19T05:53:28.996Z,94705.63
2023-01-19T05:56:07.741Z,94703.66
2023-01-19T05:58:35.105Z,94698.72
2023-01-19T06:01:03.418Z,94705.00
2023-01-19T06:03:29.925Z,94697.59
2023-01-19T06:05:58.113Z,94707.25
2023-01-19T06:08:24.663Z,94713.13
2023-01-19T06:10:51.271Z,94717.66
2023-01-19T06:13:17.760Z,94715.66
2023-01-19T06:15:44.787Z,94720.09
2023-01-19T06:18:11.923Z,94715.09
2023-01-19T06:20:38.497Z,94722.47
2023-01-19T06:23:04.979Z,94720.34
2023-01-19T06:25:31.504Z,94721.34
2023-01-19T06:27:57.943Z,94719.50
2023-01-19T06:30:24.454Z,94726.31
2023-01-19T06:32:50.903Z,94734.84
2023-01-19T06:35:17.394Z,94738.31
2023-01-19T06:37:43.841Z,94731.81
2023-01-19T06:40:13.615Z,94738.16
2023-01-19T06:42:40.918Z,94731.25
2023-01-19T06:45:08.144Z,94738.16
2023-01-19T06:47:34.623Z,94742.41
2023-01-19T06:50:01.110Z,94740.69
2023-01-19T06:52:27.746Z,94747.84
2023-01-19T06:54:54.216Z,94750.44
2023-01-19T06:57:21.956Z,94753.75
2023-01-19T06:59:48.418Z,94754.69
2023-01-19T07:02:27.271Z,94765.72
2023-01-19T07:04:55.659Z,94754.97
2023-01-19T07:07:22.134Z,94764.84
2023-01-19T07:09:48.685Z,94756.50
2023-01-19T07:12:15.159Z,94752.19
2023-01-19T07:14:42.189Z,94757.25
2023-01-19T07:17:08.667Z,94762.53
2023-01-19T07:19:35.202Z,94768.69
2023-01-19T07:22:01.906Z,94775.03
2023-01-19T07:24:28.863Z,94779.50
2023-01-19T07:26:55.318Z,94781.13
2023-01-19T07:29:24.591Z,94781.13
2023-01-19T07:31:51.597Z,94781.13
2023-01-19T07:34:18.093Z,94779.47
2023-01-19T07:36:44.555Z,94780.19
2023-01-19T07:39:11.070Z,94786.28
2023-01-19T07:41:37.651Z,94781.09
2023-01-19T07:44:04.389Z,94786.59
2023-01-19T07:46:30.954Z,94786.00
2023-01-19T07:48:57.455Z,94789.84
2023-01-19T07:51:23.910Z,94791.84
2023-01-19T07:53:50.974Z,94784.53
2023-01-19T07:56:17.463Z,94794.66
2023-01-19T07:58:43.939Z,94797.44
2023-01-19T08:01:12.991Z,94795.78
2023-01-19T08:03:39.600Z,94795.31
2023-01-19T08:06:06.757Z,94798.13
2023-01-19T08:08:34.180Z,94806.59
2023-01-19T08:11:00.921Z,94810.00
2023-01-19T08:13:27.655Z,94812.28
2023-01-19T08:15:54.529Z,94809.22
2023-01-19T08:18:21.437Z,94816.09
2023-01-19T08:20:48.032Z,94812.16
2023-01-19T08:23:14.703Z,94820.72
2023-01-19T08:25:43.099Z,94818.88
2023-01-19T08:28:12.898Z,94813.78
2023-01-19T08:30:42.709Z,94812.47
2023-01-19T08:33:09.350Z,94822.00
2023-01-19T08:35:41.887Z,94820.81
2023-01-19T08:38:09.975Z,94836.94
2023-01-19T08:40:39.044Z,94834.75
2023-01-19T08:43:09.147Z,94832.94
2023-01-19T08:45:37.500Z,94831.50
2023-01-19T08:48:04.857Z,94828.22
2023-01-19T08:50:32.661Z,94829.16
2023-01-19T08:53:01.774Z,94841.75
2023-01-19T08:55:30.033Z,94838.72
2023-01-19T08:57:57.874Z,94835.69
2023-01-19T09:00:24.995Z,94840.56
2023-01-19T09:02:51.555Z,94840.84
2023-01-19T09:05:18.335Z,94845.72
2023-01-19T09:07:46.297Z,94848.06
2023-01-19T09:10:12.900Z,94850.13
2023-01-19T09:12:39.540Z,94863.56
2023-01-19T09:15:07.032Z,94850.16
2023-01-19T09:17:33.565Z,94859.16
2023-01-19T09:20:00.038Z,94857.75
2023-01-19T09:22:26.524Z,94855.81
2023-01-19T09:24:52.996Z,94849.59
2023-01-19T09:27:19.464Z,94853.28
2023-01-19T09:29:45.909Z,94848.50
2023-01-19T09:32:12.379Z,94849.97
2023-01-19T09:34:38.875Z,94855.13
2023-01-19T09:37:05.325Z,94856.38
2023-01-19T09:39:31.816Z,94855.59
2023-01-19T09:42:19.298Z,94850.16
2023-01-19T09:44:49.704Z,94859.28
2023-01-19T09:47:24.733Z,94858.69
2023-01-19T09:50:06.386Z,94859.81
2023-01-19T09:52:41.398Z,94871.25
2023-01-19T09:55:22.355Z,94876.66
2023-01-19T09:57:48.826Z,94868.66
2023-01-19T10:00:17.785Z,94870.91
2023-01-19T10:02:54.453Z,94864.13
2023-01-19T10:05:27.514Z,94868.53
2023-01-19T10:08:17.422Z,94866.94
2023-01-19T10:10:53.004Z,94864.88
2023-01-19T10:13:34.298Z,94867.47
2023-01-19T10:16:28.246Z,94865.06
2023-01-19T10:19:23.011Z,94863.22
2023-01-19T10:21:51.502Z,94863.88
2023-01-19T10:24:26.379Z,94867.16
2023-01-19T10:26:54.931Z,94860.47
2023-01-19T10:29:33.904Z,94862.00
2023-01-19T10:32:25.236Z,94858.88
2023-01-19T10:34:53.203Z,94857.22
2023-01-19T10:37:36.637Z,94855.88
2023-01-19T10:40:08.822Z,94853.00
2023-01-19T10:42:37.466Z,94859.44
2023-01-19T10:45:14.585Z,94862.88
2023-01-19T10:47:43.743Z,94847.94
2023-01-19T10:50:23.784Z,94851.72
2023-01-19T10:52:56.379Z,94852.84
2023-01-19T10:55:31.820Z,94854.09
2023-01-19T10:57:59.650Z,94848.19
2023-01-19T11:00:41.851Z,94849.84
2023-01-19T11:03:31.360Z,94849.03
2023-01-19T11:06:26.229Z,94838.66
2023-01-19T11:09:08.704Z,94839.72
2023-01-19T11:11:44.078Z,94843.84
2023-01-19T11:14:14.155Z,94837.19
2023-01-19T11:16:47.976Z,94822.97
2023-01-19T11:19:24.418Z,94826.25
2023-01-19T11:21:51.264Z,94829.41
2023-01-19T11:24:18.857Z,94820.72
2023-01-19T11:26:50.126Z,94826.59
2023-01-19T11:29:21.271Z,94824.44
2023-01-19T11:31:48.665Z,94812.22
2023-01-19T11:34:33.341Z,94807.25
2023-01-19T11:37:08.659Z,94804.09
2023-01-19T11:39:57.607Z,94803.72
2023-01-19T11:42:26.010Z,94802.19
2023-01-19T11:44:59.134Z,94794.56
2023-01-19T11:47:30.530Z,94801.16
2023-01-19T11:49:59.020Z,94798.44
2023-01-19T11:52:37.511Z,94795.50
2023-01-19T11:55:13.311Z,94789.09
2023-01-19T11:57:47.300Z,94785.31
2023-01-19T12:00:27.655Z,94797.50
2023-01-19T12:03:23.034Z,94790.28
2023-01-19T12:05:55.210Z,94780.53
2023-01-19T12:08:29.325Z,94782.03
2023-01-19T12:10:59.927Z,94775.06
2023-01-19T12:13:27.831Z,94786.78
2023-01-19T12:16:00.811Z,94777.41
2023-01-19T12:18:40.388Z,94785.06
2023-01-19T12:21:06.820Z,94780.91
2023-01-19T12:23:42.413Z,94778.72
2023-01-19T12:26:34.424Z,94771.56
2023-01-19T12:29:11.089Z,94777.34
2023-01-19T12:31:38.327Z,94766.13
2023-01-19T12:34:23.565Z,94773.69
2023-01-19T12:36:51.634Z,94771.59
2023-01-19T12:39:21.096Z,94777.94
2023-01-19T12:42:03.353Z,94774.91
2023-01-19T12:44:31.625Z,94767.88
2023-01-19T12:47:00.193Z,94760.66
2023-01-19T12:49:29.454Z,94767.13
2023-01-19T12:52:26.514Z,94758.00
2023-01-19T12:55:02.057Z,94759.91
2023-01-19T12:57:38.781Z,94761.19
2023-01-19T13:00:27.415Z,94756.75
2023-01-19T13:02:54.020Z,94758.19
2023-01-19T13:05:33.568Z,94759.50
2023-01-19T13:08:06.370Z,94748.44
2023-01-19T13:11:11.994Z,94757.06
2023-01-19T13:13:52.337Z,94752.00
2023-01-19T13:16:19.044Z,94754.69
2023-01-19T13:18:58.011Z,94756.38
2023-01-19T13:21:44.802Z,94747.09
2023-01-19T13:24:15.587Z,94741.88
2023-01-19T13:26:51.151Z,94740.97
2023-01-19T13:29:26.832Z,94739.72
2023-01-19T13:31:54.415Z,94739.31
2023-01-19T13:34:27.112Z,94739.25
2023-01-19T13:36:57.201Z,94744.63
2023-01-19T13:39:29.855Z,94738.91
2023-01-19T13:42:02.189Z,94739.88
2023-01-19T13:44:43.041Z,94737.91
2023-01-19T13:47:25.705Z,94736.63
2023-01-19T13:49:58.551Z,94737.63
2023-01-19T13:52:28.306Z,94730.28
2023-01-19T13:55:03.553Z,94739.66
2023-01-19T13:57:33.460Z,94736.06
2023-01-19T14:00:11.841Z,94726.44
2023-01-19T14:02:40.513Z,94724.28
2023-01-19T14:05:21.968Z,94724.63
2023-01-19T14:07:58.868Z,94715.59
2023-01-19T14:10:25.379Z,94716.03
2023-01-19T14:13:01.976Z,94719.63
2023-01-19T14:15:30.418Z,94722.16
2023-01-19T14:18:30.484Z,94718.97
2023-01-19T14:21:05.703Z,94716.63
2023-01-19T14:23:43.125Z,94707.09
2023-01-19T14:26:37.511Z,94707.03
2023-01-19T14:29:09.858Z,94704.16
2023-01-19T14:31:45.522Z,94699.41
2023-01-19T14:34:33.142Z,94705.13
2023-01-19T14:37:01.745Z,94703.03
2023-01-19T14:39:32.814Z,94701.72
2023-01-19T14:42:06.212Z,94700.78
2023-01-19T14:44:37.635Z,94687.09
2023-01-19T14:47:06.591Z,94685.59
2023-01-19T14:49:40.754Z,94690.06
2023-01-19T14:52:21.355Z,94692.25
2023-01-19T14:54:48.963Z,94684.22
2023-01-19T14:57:15.473Z,94674.59
2023-01-19T14:59:42.455Z,94678.25
2023-01-19T15:02:08.990Z,94680.06
2023-01-19T15:04:35.592Z,94677.00
2023-01-19T15:07:02.533Z,94681.16
2023-01-19T15:09:29.105Z,94677.09
2023-01-19T15:11:55.814Z,94681.53
2023-01-19T15:14:22.693Z,94678.09
2023-01-19T15:16:49.776Z,94678.63
2023-01-19T15:19:17.752Z,94676.72
2023-01-19T15:21:44.725Z,94666.31
2023-01-19T15:24:12.395Z,94670.28
2023-01-19T15:26:42.011Z,94673.75
2023-01-19T15:29:23.315Z,94663.88
2023-01-19T15:31:50.446Z,94671.75
2023-01-19T15:34:17.022Z,94673.22
2023-01-19T15:36:44.077Z,94679.44
2023-01-19T15:39:11.159Z,94669.25
2023-01-19T15:41:40.924Z,94677.78
2023-01-19T15:44:10.294Z,94671.47
2023-01-19T15:46:37.463Z,94670.88
2023-01-19T15:49:04.288Z,94663.09
2023-01-19T15:51:31.127Z,94659.75
2023-01-19T15:53:57.604Z,94659.16
2023-01-19T15:56:27.178Z,94655.56
2023-01-19T15:58:54.780Z,94668.03
2023-01-19T16:01:24.502Z,94660.59
2023-01-19T16:03:51.078Z,94663.06
2023-01-19T16:06:17.796Z,94659.59
2023-01-19T16:08:44.474Z,94659.59
2023-01-19T16:11:14.511Z,94656.63
2023-01-19T16:13:44.464Z,94656.22
2023-01-19T16:16:17.431Z,94653.91
2023-01-19T16:18:44.368Z,94654.69
2023-01-19T16:21:11.219Z,94651.72
2023-01-19T16:23:38.022Z,94656.59
2023-01-19T16:26:08.227Z,94650.31
2023-01-19T16:28:36.765Z,94643.41
2023-01-19T16:31:04.353Z,94642.63
2023-01-19T16:33:30.839Z,94637.16
2023-01-19T16:35:57.852Z,94635.56
2023-01-19T16:38:24.453Z,94646.56
2023-01-19T16:40:51.412Z,94648.53
2023-01-19T16:43:17.864Z,94641.56
2023-01-19T16:45:58.462Z,94644.97
2023-01-19T16:48:26.412Z,94642.69
2023-01-19T16:51:06.721Z,94642.22
2023-01-19T16:53:34.358Z,94634.56
2023-01-19T16:56:27.007Z,94640.66
2023-01-19T16:58:58.549Z,94642.31
2023-01-19T17:01:27.862Z,94636.91
2023-01-19T17:03:55.415Z,94632.75
2023-01-19T17:06:24.162Z,94636.31
2023-01-19T17:08:52.443Z,94640.53
2023-01-19T17:11:25.140Z,94636.31
2023-01-19T17:13:56.118Z,94631.03
2023-01-19T17:16:26.844Z,94635.25
2023-01-19T17:18:54.036Z,94633.50
2023-01-19T17:21:20.513Z,94628.81
2023-01-19T17:23:49.723Z,94626.28
2023-01-19T17:26:17.877Z,94633.19
2023-01-19T17:28:44.783Z,94615.13
2023-01-19T17:31:14.427Z,94621.28
2023-01-19T17:33:44.478Z,94610.84
2023-01-19T17:36:14.243Z,94622.00
2023-01-19T17:38:41.624Z,94616.91
2023-01-19T17:41:18.324Z,94619.66
2023-01-19T17:43:45.290Z,94611.78
2023-01-19T17:46:12.602Z,94607.13
2023-01-19T17:48:39.675Z,94605.81
2023-01-19T17:51:09.471Z,94605.44
2023-01-19T17:53:38.252Z,94614.97
2023-01-19T17:56:10.483Z,94615.31
2023-01-19T17:58:37.884Z,94606.53
2023-01-19T18:01:15.639Z,94607.84
2023-01-19T18:03:43.182Z,94605.84
2023-01-19T18:06:10.097Z,94602.56
2023-01-19T18:08:42.516Z,94601.19
2023-01-19T18:11:10.824Z,94602.28
2023-01-19T18:13:38.765Z,94597.47
2023-01-19T18:16:08.730Z,94603.16
2023-01-19T18:18:36.903Z,94592.16
2023-01-19T18:21:06.584Z,94589.94
2023-01-19T18:23:33.663Z,94600.50
2023-01-19T18:26:13.046Z,94589.38
2023-01-19T18:28:39.783Z,94587.22
2023-01-19T18:31:11.692Z,94579.38
2023-01-19T18:33:39.276Z,94579.13
2023-01-19T18:36:06.298Z,94584.56
2023-01-19T18:38:33.788Z,94580.72
2023-01-19T18:41:08.203Z,94576.72
2023-01-19T18:43:34.883Z,94582.47
2023-01-19T18:46:01.391Z,94582.09
2023-01-19T18:48:27.939Z,94565.56
2023-01-19T18:50:54.499Z,94560.88
2023-01-19T18:53:21.043Z,94568.91
2023-01-19T18:55:58.511Z,94573.31
2023-01-19T18:58:25.719Z,94571.47
2023-01-19T19:00:52.211Z,94575.75
2023-01-19T19:03:18.716Z,94570.38
2023-01-19T19:05:45.245Z,94568.47
2023-01-19T19:08:12.269Z,94560.97
2023-01-19T19:10:40.879Z,94557.88
2023-01-19T19:13:08.209Z,94566.38
2023-01-19T19:15:34.751Z,94561.06
2023-01-19T19:18:01.202Z,94558.88
2023-01-19T19:20:27.664Z,94558.63
2023-01-19T19:22:55.095Z,94566.94
2023-01-19T19:25:21.658Z,94566.78
2023-01-19T19:27:52.492Z,94556.50
2023-01-19T19:30:34.099Z,94549.31
2023-01-19T19:33:00.640Z,94546.22
2023-01-19T19:35:27.174Z,94545.13
2023-01-19T19:37:53.650Z,94552.16
2023-01-19T19:40:20.164Z,94549.25
2023-01-19T19:42:46.632Z,94548.31
2023-01-19T19:45:13.117Z,94551.84
2023-01-19T19:47:39.601Z,94560.06
2023-01-19T19:50:06.471Z,94552.66
2023-01-19T19:52:37.975Z,94559.50
2023-01-19T19:55:05.195Z,94565.00
2023-01-19T19:57:31.663Z,94565.25
2023-01-19T19:59:58.137Z,94580.41
2023-01-19T20:02:24.604Z,94570.22
2023-01-19T20:04:51.083Z,94571.66
2023-01-19T20:07:18.067Z,94566.53
2023-01-19T20:09:44.649Z,94567.34
2023-01-19T20:12:11.231Z,94563.28
2023-01-19T20:14:37.747Z,94566.69
2023-01-19T20:17:04.343Z,94565.72
2023-01-19T20:19:32.531Z,94565.44
2023-01-19T20:21:59.195Z,94575.28
2023-01-19T20:24:25.688Z,94568.19
2023-01-19T20:26:53.271Z,94574.75
2023-01-19T20:29:20.240Z,94576.50
2023-01-19T20:31:54.161Z,94572.44
2023-01-19T20:34:23.436Z,94574.78
2023-01-19T20:36:49.950Z,94579.00
2023-01-19T20:39:18.330Z,94569.72
2023-01-19T20:41:45.656Z,94577.09
2023-01-19T20:44:15.472Z,94576.81
2023-01-19T20:46:42.966Z,94574.44
2023-01-19T20:49:09.528Z,94572.97
2023-01-19T20:51:36.092Z,94579.19
2023-01-19T20:54:03.180Z,94581.31
2023-01-19T20:56:29.648Z,94591.69
2023-01-19T20:58:57.810Z,94586.31
2023-01-19T21:01:24.990Z,94581.75
2023-01-19T21:03:52.004Z,94583.31
2023-01-19T21:06:19.950Z,94587.97
2023-01-19T21:08:47.606Z,94589.59
2023-01-19T21:11:14.359Z,94584.88
2023-01-19T21:13:41.047Z,94588.34
2023-01-19T21:16:07.979Z,94594.31
2023-01-19T21:18:34.544Z,94601.06
2023-01-19T21:21:01.027Z,94602.47
2023-01-19T21:23:27.846Z,94604.22
2023-01-19T21:25:57.550Z,94604.78
2023-01-19T21:28:25.737Z,94602.22
2023-01-19T21:30:53.891Z,94617.41
2023-01-19T21:33:23.383Z,94611.94
2023-01-19T21:35:54.753Z,94618.50
2023-01-19T21:38:23.731Z,94617.06
2023-01-19T21:40:50.401Z,94612.09
2023-01-19T21:43:17.301Z,94619.31
2023-01-19T21:45:43.760Z,94630.63
2023-01-19T21:48:10.289Z,94625.09
2023-01-19T21:50:36.838Z,94626.66
2023-01-19T21:53:04.540Z,94629.72
2023-01-19T21:55:31.204Z,94629.56
2023-01-19T21:57:57.679Z,94631.16
2023-01-19T22:00:24.269Z,94637.66
2023-01-19T22:03:03.101Z,94637.41
2023-01-19T22:05:30.140Z,94638.59
2023-01-19T22:07:56.671Z,94646.47
2023-01-19T22:10:23.151Z,94653.31
2023-01-19T22:12:49.680Z,94664.50
2023-01-19T22:15:16.200Z,94666.00
2023-01-19T22:17:42.688Z,94659.28
2023-01-19T22:20:09.613Z,94663.50
2023-01-19T22:22:36.071Z,94661.47
2023-01-19T22:25:03.042Z,94659.44
2023-01-19T22:27:30.476Z,94674.81
2023-01-19T22:29:56.959Z,94674.78
2023-01-19T22:32:23.482Z,94672.97
2023-01-19T22:34:49.964Z,94671.88
2023-01-19T22:37:16.450Z,94671.03
2023-01-19T22:39:42.971Z,94671.25
2023-01-19T22:42:09.468Z,94668.84
2023-01-19T22:44:35.946Z,94672.19
2023-01-19T22:47:02.597Z,94671.25
2023-01-19T22:49:29.183Z,94671.03
2023-01-19T22:51:55.852Z,94671.19
2023-01-19T22:54:22.335Z,94668.97
2023-01-19T22:56:49.237Z,94668.22
2023-01-19T22:59:15.932Z,94671.66
2023-01-19T23:01:44.182Z,94681.91
2023-01-19T23:04:14.102Z,94680.28
2023-01-19T23:06:40.583Z,94680.88
2023-01-19T23:09:12.881Z,94684.53
2023-01-19T23:11:42.379Z,94684.13
2023-01-19T23:14:14.109Z,94686.06
2023-01-19T23:16:40.671Z,94686.63
2023-01-19T23:19:07.333Z,94687.47
2023-01-19T23:21:34.267Z,94691.09
2023-01-19T23:24:03.229Z,94691.94
2023-01-19T23:26:31.116Z,94694.22
2023-01-19T23:29:00.858Z,94695.41
2023-01-19T23:31:31.682Z,94696.34
2023-01-19T23:34:00.743Z,94691.19
2023-01-19T23:36:29.776Z,94687.13
2023-01-19T23:39:16.589Z,94685.16
2023-01-19T23:41:43.871Z,94693.94
2023-01-19T23:44:10.485Z,94698.47
2023-01-19T23:46:43.750Z,94690.28
2023-01-19T23:49:10.469Z,94692.41
2023-01-19T23:51:36.938Z,94695.00
2023-01-19T23:54:03.648Z,94706.53
2023-01-19T23:56:33.804Z,94712.28
2023-01-19T23:59:04.361Z,94715.47
